sensor_id;sensor_type;location;lat;lon;timestamp;pressure;altitude;pressure_sealevel;temperature;humidity
550;BME280;20066;48.764;9.176;2022-10-16T00:01:07;98082.91;;;19.12;69.05
550;BME280;20066;48.764;9.176;2022-10-16T00:03:35;98080.34;;;19.18;69.80
550;BME280;20066;48.764;9.176;2022-10-16T00:06:03;98076.81;;;19.30;69.16
550;BME280;20066;48.764;9.176;2022-10-16T00:08:31;98064.63;;;19.00;70.11
550;BME280;20066;48.764;9.176;2022-10-16T00:11:01;98070.97;;;18.50;73.56
550;BME280;20066;48.764;9.176;2022-10-16T00:13:29;98070.44;;;18.90;70.46
550;BME280;20066;48.764;9.176;2022-10-16T00:16:00;98075.75;;;18.59;72.98
550;BME280;20066;48.764;9.176;2022-10-16T00:18:29;98073.63;;;19.10;70.95
550;BME280;20066;48.764;9.176;2022-10-16T00:21:02;98060.28;;;19.24;70.15
550;BME280;20066;48.764;9.176;2022-10-16T00:23:30;98061.84;;;18.91;70.46
550;BME280;20066;48.764;9.176;2022-10-16T00:26:00;98067.13;;;18.60;72.68
550;BME280;20066;48.764;9.176;2022-10-16T00:28:29;98067.22;;;18.69;71.78
550;BME280;20066;48.764;9.176;2022-10-16T00:30:59;98071.66;;;19.10;70.57
550;BME280;20066;48.764;9.176;2022-10-16T00:33:29;98059.44;;;19.37;69.15
550;BME280;20066;48.764;9.176;2022-10-16T00:35:57;98060.78;;;19.32;69.21
550;BME280;20066;48.764;9.176;2022-10-16T00:38:26;98059.88;;;18.79;70.91
550;BME280;20066;48.764;9.176;2022-10-16T00:40:53;98062.16;;;18.33;73.56
550;BME280;20066;48.764;9.176;2022-10-16T00:43:37;98066.25;;;18.63;72.28
550;BME280;20066;48.764;9.176;2022-10-16T00:46:12;98069.44;;;18.62;72.54
550;BME280;20066;48.764;9.176;2022-10-16T00:48:42;98070.47;;;18.77;71.50
550;BME280;20066;48.764;9.176;2022-10-16T00:51:13;98073.50;;;18.79;72.13
550;BME280;20066;48.764;9.176;2022-10-16T00:53:41;98067.53;;;18.71;71.56
550;BME280;20066;48.764;9.176;2022-10-16T00:56:09;98060.59;;;18.58;72.69
550;BME280;20066;48.764;9.176;2022-10-16T00:58:37;98071.31;;;18.27;74.77
550;BME280;20066;48.764;9.176;2022-10-16T01:01:07;98072.75;;;18.31;75.00
550;BME280;20066;48.764;9.176;2022-10-16T01:03:36;98080.66;;;18.51;73.54
550;BME280;20066;48.764;9.176;2022-10-16T01:06:18;98094.63;;;18.28;73.89
550;BME280;20066;48.764;9.176;2022-10-16T01:09:21;98087.94;;;18.67;71.59
550;BME280;20066;48.764;9.176;2022-10-16T01:11:57;98088.28;;;19.03;70.41
550;BME280;20066;48.764;9.176;2022-10-16T01:14:37;98089.41;;;18.80;71.91
550;BME280;20066;48.764;9.176;2022-10-16T01:17:11;98094.19;;;19.02;71.15
550;BME280;20066;48.764;9.176;2022-10-16T01:19:55;98092.81;;;18.72;71.71
550;BME280;20066;48.764;9.176;2022-10-16T01:22:37;98093.47;;;18.89;71.28
550;BME280;20066;48.764;9.176;2022-10-16T01:25:11;98088.56;;;18.83;71.32
550;BME280;20066;48.764;9.176;2022-10-16T01:27:45;98074.53;;;19.07;69.54
550;BME280;20066;48.764;9.176;2022-10-16T01:30:18;98072.00;;;18.31;72.08
550;BME280;20066;48.764;9.176;2022-10-16T01:32:50;98070.19;;;18.49;71.70
550;BME280;20066;48.764;9.176;2022-10-16T01:35:23;98078.13;;;18.57;72.06
550;BME280;20066;48.764;9.176;2022-10-16T01:37:58;98084.47;;;18.54;71.62
550;BME280;20066;48.764;9.176;2022-10-16T01:40:28;98073.97;;;18.77;70.76
550;BME280;20066;48.764;9.176;2022-10-16T01:43:04;98069.84;;;19.07;69.82
550;BME280;20066;48.764;9.176;2022-10-16T01:45:34;98062.44;;;18.61;71.42
550;BME280;20066;48.764;9.176;2022-10-16T01:48:05;98065.88;;;18.86;70.18
550;BME280;20066;48.764;9.176;2022-10-16T01:50:38;98070.84;;;19.01;70.36
550;BME280;20066;48.764;9.176;2022-10-16T01:53:11;98062.69;;;19.22;69.18
550;BME280;20066;48.764;9.176;2022-10-16T01:55:43;98068.25;;;17.61;76.18
550;BME280;20066;48.764;9.176;2022-10-16T01:58:15;98055.09;;;18.10;74.68
550;BME280;20066;48.764;9.176;2022-10-16T02:00:44;98069.94;;;17.97;75.45
550;BME280;20066;48.764;9.176;2022-10-16T02:03:16;98067.75;;;18.64;72.67
550;BME280;20066;48.764;9.176;2022-10-16T02:05:47;98064.81;;;18.24;73.16
550;BME280;20066;48.764;9.176;2022-10-16T02:08:18;98057.19;;;18.19;73.31
550;BME280;20066;48.764;9.176;2022-10-16T02:10:46;98052.78;;;18.34;73.50
550;BME280;20066;48.764;9.176;2022-10-16T02:13:19;98065.31;;;18.79;70.89
550;BME280;20066;48.764;9.176;2022-10-16T02:15:50;98061.69;;;18.60;71.87
550;BME280;20066;48.764;9.176;2022-10-16T02:18:18;98071.34;;;18.74;71.05
550;BME280;20066;48.764;9.176;2022-10-16T02:20:51;98068.69;;;18.83;70.43
550;BME280;20066;48.764;9.176;2022-10-16T02:23:26;98075.25;;;18.26;72.90
550;BME280;20066;48.764;9.176;2022-10-16T02:25:58;98078.44;;;18.84;71.28
550;BME280;20066;48.764;9.176;2022-10-16T02:28:31;98074.31;;;18.67;72.10
550;BME280;20066;48.764;9.176;2022-10-16T02:31:04;98069.91;;;18.35;73.36
550;BME280;20066;48.764;9.176;2022-10-16T02:33:36;98057.38;;;18.72;71.90
550;BME280;20066;48.764;9.176;2022-10-16T02:36:07;98061.84;;;18.91;70.38
550;BME280;20066;48.764;9.176;2022-10-16T02:38:35;98054.63;;;18.50;71.30
550;BME280;20066;48.764;9.176;2022-10-16T02:41:04;98054.34;;;18.23;73.20
550;BME280;20066;48.764;9.176;2022-10-16T02:43:33;98064.13;;;18.80;71.04
550;BME280;20066;48.764;9.176;2022-10-16T02:46:01;98065.69;;;19.03;70.73
550;BME280;20066;48.764;9.176;2022-10-16T02:48:29;98069.22;;;19.25;69.53
550;BME280;20066;48.764;9.176;2022-10-16T02:50:57;98065.97;;;19.17;69.22
550;BME280;20066;48.764;9.176;2022-10-16T02:53:24;98075.63;;;19.09;69.97
550;BME280;20066;48.764;9.176;2022-10-16T02:55:52;98073.91;;;19.24;69.15
550;BME280;20066;48.764;9.176;2022-10-16T02:58:20;98075.72;;;19.28;68.74
550;BME280;20066;48.764;9.176;2022-10-16T03:00:49;98088.31;;;19.47;67.91
550;BME280;20066;48.764;9.176;2022-10-16T03:03:17;98087.72;;;19.52;67.68
550;BME280;20066;48.764;9.176;2022-10-16T03:05:45;98084.59;;;18.97;69.98
550;BME280;20066;48.764;9.176;2022-10-16T03:08:13;98083.88;;;18.84;70.24
550;BME280;20066;48.764;9.176;2022-10-16T03:10:41;98087.59;;;19.12;69.19
550;BME280;20066;48.764;9.176;2022-10-16T03:13:09;98085.34;;;18.98;69.36
550;BME280;20066;48.764;9.176;2022-10-16T03:15:37;98082.13;;;18.90;70.12
550;BME280;20066;48.764;9.176;2022-10-16T03:18:06;98089.41;;;18.80;70.04
550;BME280;20066;48.764;9.176;2022-10-16T03:20:34;98089.84;;;18.92;69.87
550;BME280;20066;48.764;9.176;2022-10-16T03:23:02;98087.13;;;18.92;69.86
550;BME280;20066;48.764;9.176;2022-10-16T03:25:30;98086.88;;;18.52;72.41
550;BME280;20066;48.764;9.176;2022-10-16T03:27:57;98091.75;;;19.04;69.65
550;BME280;20066;48.764;9.176;2022-10-16T03:30:25;98086.97;;;19.08;69.07
550;BME280;20066;48.764;9.176;2022-10-16T03:32:53;98089.16;;;18.53;71.24
550;BME280;20066;48.764;9.176;2022-10-16T03:35:23;98085.78;;;18.96;70.15
550;BME280;20066;48.764;9.176;2022-10-16T03:37:51;98084.25;;;18.61;71.21
550;BME280;20066;48.764;9.176;2022-10-16T03:40:19;98096.06;;;18.79;70.45
550;BME280;20066;48.764;9.176;2022-10-16T03:42:47;98097.44;;;19.09;69.57
550;BME280;20066;48.764;9.176;2022-10-16T03:45:15;98098.94;;;19.10;69.30
550;BME280;20066;48.764;9.176;2022-10-16T03:47:43;98092.25;;;18.90;69.58
550;BME280;20066;48.764;9.176;2022-10-16T03:50:11;98092.75;;;18.50;72.78
550;BME280;20066;48.764;9.176;2022-10-16T03:52:40;98094.91;;;17.54;76.26
550;BME280;20066;48.764;9.176;2022-10-16T03:55:09;98095.91;;;18.48;72.86
550;BME280;20066;48.764;9.176;2022-10-16T03:57:37;98099.94;;;18.69;71.83
550;BME280;20066;48.764;9.176;2022-10-16T04:00:06;98108.19;;;18.91;70.19
550;BME280;20066;48.764;9.176;2022-10-16T04:02:34;98105.00;;;18.93;69.97
550;BME280;20066;48.764;9.176;2022-10-16T04:05:02;98096.53;;;18.78;70.66
550;BME280;20066;48.764;9.176;2022-10-16T04:07:30;98101.72;;;18.38;72.42
550;BME280;20066;48.764;9.176;2022-10-16T04:09:59;98095.47;;;18.50;72.34
550;BME280;20066;48.764;9.176;2022-10-16T04:12:27;98096.94;;;18.89;70.22
550;BME280;20066;48.764;9.176;2022-10-16T04:14:54;98100.88;;;18.88;69.79
550;BME280;20066;48.764;9.176;2022-10-16T04:17:22;98097.72;;;18.77;70.30
550;BME280;20066;48.764;9.176;2022-10-16T04:19:50;98099.44;;;18.96;69.99
550;BME280;20066;48.764;9.176;2022-10-16T04:22:18;98097.28;;;18.78;70.42
550;BME280;20066;48.764;9.176;2022-10-16T04:24:46;98093.34;;;18.92;69.88
550;BME280;20066;48.764;9.176;2022-10-16T04:27:15;98098.50;;;19.12;69.08
550;BME280;20066;48.764;9.176;2022-10-16T04:29:43;98098.38;;;19.15;68.79
550;BME280;20066;48.764;9.176;2022-10-16T04:32:12;98095.44;;;19.10;68.66
550;BME280;20066;48.764;9.176;2022-10-16T04:34:39;98099.78;;;18.73;70.30
550;BME280;20066;48.764;9.176;2022-10-16T04:37:07;98100.88;;;18.75;69.67
550;BME280;20066;48.764;9.176;2022-10-16T04:39:35;98095.59;;;19.06;69.41
550;BME280;20066;48.764;9.176;2022-10-16T04:42:03;98092.09;;;18.59;71.18
550;BME280;20066;48.764;9.176;2022-10-16T04:44:33;98097.59;;;18.80;70.26
550;BME280;20066;48.764;9.176;2022-10-16T04:47:00;98102.91;;;18.37;72.17
550;BME280;20066;48.764;9.176;2022-10-16T04:49:28;98110.47;;;18.80;70.30
550;BME280;20066;48.764;9.176;2022-10-16T04:51:56;98117.22;;;18.88;69.83
550;BME280;20066;48.764;9.176;2022-10-16T04:54:24;98114.06;;;18.77;69.61
550;BME280;20066;48.764;9.176;2022-10-16T04:56:52;98122.31;;;18.99;69.04
550;BME280;20066;48.764;9.176;2022-10-16T04:59:21;98123.19;;;19.08;68.68
550;BME280;20066;48.764;9.176;2022-10-16T05:01:50;98124.72;;;18.97;69.10
550;BME280;20066;48.764;9.176;2022-10-16T05:04:18;98130.97;;;19.19;68.29
550;BME280;20066;48.764;9.176;2022-10-16T05:06:45;98139.69;;;18.92;69.14
550;BME280;20066;48.764;9.176;2022-10-16T05:09:13;98134.94;;;19.05;69.03
550;BME280;20066;48.764;9.176;2022-10-16T05:11:41;98130.19;;;18.97;68.98
550;BME280;20066;48.764;9.176;2022-10-16T05:14:09;98133.34;;;18.95;69.28
550;BME280;20066;48.764;9.176;2022-10-16T05:16:37;98135.06;;;18.17;73.13
550;BME280;20066;48.764;9.176;2022-10-16T05:19:06;98140.91;;;18.02;73.71
550;BME280;20066;48.764;9.176;2022-10-16T05:21:53;98129.47;;;18.33;72.63
550;BME280;20066;48.764;9.176;2022-10-16T05:24:21;98136.97;;;17.91;73.37
550;BME280;20066;48.764;9.176;2022-10-16T05:26:49;98131.19;;;17.89;74.05
550;BME280;20066;48.764;9.176;2022-10-16T05:29:17;98123.06;;;18.52;71.70
550;BME280;20066;48.764;9.176;2022-10-16T05:31:45;98130.03;;;18.28;72.34
550;BME280;20066;48.764;9.176;2022-10-16T05:34:14;98128.31;;;18.46;71.91
550;BME280;20066;48.764;9.176;2022-10-16T05:36:42;98128.84;;;18.54;71.38
550;BME280;20066;48.764;9.176;2022-10-16T05:39:11;98130.00;;;18.66;70.73
550;BME280;20066;48.764;9.176;2022-10-16T05:41:41;98131.75;;;18.85;69.98
550;BME280;20066;48.764;9.176;2022-10-16T05:44:09;98148.50;;;18.96;69.26
550;BME280;20066;48.764;9.176;2022-10-16T05:46:37;98148.41;;;19.00;68.98
550;BME280;20066;48.764;9.176;2022-10-16T05:49:05;98138.72;;;18.86;69.34
550;BME280;20066;48.764;9.176;2022-10-16T05:51:34;98140.28;;;18.36;71.41
550;BME280;20066;48.764;9.176;2022-10-16T05:54:02;98136.13;;;18.19;72.82
550;BME280;20066;48.764;9.176;2022-10-16T05:56:30;98150.63;;;17.62;74.26
550;BME280;20066;48.764;9.176;2022-10-16T05:58:57;98160.00;;;18.28;72.41
550;BME280;20066;48.764;9.176;2022-10-16T06:01:25;98152.81;;;18.46;71.12
550;BME280;20066;48.764;9.176;2022-10-16T06:03:53;98158.88;;;18.76;70.27
550;BME280;20066;48.764;9.176;2022-10-16T06:06:22;98160.34;;;18.55;71.28
550;BME280;20066;48.764;9.176;2022-10-16T06:08:54;98163.38;;;18.57;70.68
550;BME280;20066;48.764;9.176;2022-10-16T06:11:24;98158.25;;;18.59;70.65
550;BME280;20066;48.764;9.176;2022-10-16T06:13:54;98170.53;;;18.76;69.58
550;BME280;20066;48.764;9.176;2022-10-16T06:16:23;98169.97;;;18.81;69.69
550;BME280;20066;48.764;9.176;2022-10-16T06:18:53;98175.88;;;18.80;70.05
550;BME280;20066;48.764;9.176;2022-10-16T06:21:24;98173.91;;;18.80;69.39
550;BME280;20066;48.764;9.176;2022-10-16T06:23:53;98177.81;;;19.05;68.72
550;BME280;20066;48.764;9.176;2022-10-16T06:26:23;98180.09;;;19.06;68.34
550;BME280;20066;48.764;9.176;2022-10-16T06:28:53;98179.06;;;19.25;67.58
550;BME280;20066;48.764;9.176;2022-10-16T06:31:21;98177.41;;;19.28;67.58
550;BME280;20066;48.764;9.176;2022-10-16T06:33:51;98180.19;;;19.15;67.77
550;BME280;20066;48.764;9.176;2022-10-16T06:36:20;98173.50;;;19.29;68.08
550;BME280;20066;48.764;9.176;2022-10-16T06:38:48;98185.06;;;18.23;71.93
550;BME280;20066;48.764;9.176;2022-10-16T06:41:20;98189.63;;;18.76;70.36
550;BME280;20066;48.764;9.176;2022-10-16T06:43:48;98187.66;;;18.90;70.23
550;BME280;20066;48.764;9.176;2022-10-16T06:46:19;98196.50;;;18.56;70.53
550;BME280;20066;48.764;9.176;2022-10-16T06:48:47;98200.84;;;18.28;72.91
550;BME280;20066;48.764;9.176;2022-10-16T06:51:17;98206.16;;;18.06;72.99
550;BME280;20066;48.764;9.176;2022-10-16T06:53:47;98213.50;;;17.93;72.37
550;BME280;20066;48.764;9.176;2022-10-16T06:56:33;98202.47;;;18.63;70.19
550;BME280;20066;48.764;9.176;2022-10-16T06:59:02;98210.53;;;18.41;69.89
550;BME280;20066;48.764;9.176;2022-10-16T07:01:31;98212.84;;;18.43;69.52
550;BME280;20066;48.764;9.176;2022-10-16T07:04:00;98211.44;;;18.76;68.12
550;BME280;20066;48.764;9.176;2022-10-16T07:06:31;98215.13;;;18.82;67.65
550;BME280;20066;48.764;9.176;2022-10-16T07:09:02;98217.97;;;18.92;67.43
550;BME280;20066;48.764;9.176;2022-10-16T07:11:33;98229.19;;;18.81;67.91
550;BME280;20066;48.764;9.176;2022-10-16T07:14:01;98232.25;;;18.83;67.68
550;BME280;20066;48.764;9.176;2022-10-16T07:16:30;98230.84;;;18.78;67.02
550;BME280;20066;48.764;9.176;2022-10-16T07:19:00;98239.44;;;19.15;66.56
550;BME280;20066;48.764;9.176;2022-10-16T07:21:30;98242.50;;;18.54;68.27
550;BME280;20066;48.764;9.176;2022-10-16T07:24:03;98245.69;;;18.90;67.37
550;BME280;20066;48.764;9.176;2022-10-16T07:26:35;98251.69;;;18.85;66.65
550;BME280;20066;48.764;9.176;2022-10-16T07:29:07;98266.91;;;19.20;66.52
550;BME280;20066;48.764;9.176;2022-10-16T07:31:40;98264.06;;;19.11;66.35
550;BME280;20066;48.764;9.176;2022-10-16T07:34:08;98271.06;;;18.87;67.82
550;BME280;20066;48.764;9.176;2022-10-16T07:36:36;98268.97;;;18.53;67.63
550;BME280;20066;48.764;9.176;2022-10-16T07:39:04;98265.19;;;19.14;66.50
550;BME280;20066;48.764;9.176;2022-10-16T07:41:34;98259.59;;;19.30;65.52
550;BME280;20066;48.764;9.176;2022-10-16T07:44:03;98252.06;;;19.69;64.15
550;BME280;20066;48.764;9.176;2022-10-16T07:46:32;98269.63;;;18.82;67.42
550;BME280;20066;48.764;9.176;2022-10-16T07:49:02;98265.91;;;19.74;64.28
550;BME280;20066;48.764;9.176;2022-10-16T07:51:30;98274.03;;;19.52;65.14
550;BME280;20066;48.764;9.176;2022-10-16T07:53:58;98275.00;;;19.71;65.00
550;BME280;20066;48.764;9.176;2022-10-16T07:56:26;98272.13;;;19.75;65.25
550;BME280;20066;48.764;9.176;2022-10-16T07:58:56;98283.06;;;19.62;63.70
550;BME280;20066;48.764;9.176;2022-10-16T08:01:24;98280.06;;;19.35;64.81
550;BME280;20066;48.764;9.176;2022-10-16T08:03:52;98285.72;;;19.53;65.40
550;BME280;20066;48.764;9.176;2022-10-16T08:06:21;98286.91;;;19.52;65.39
550;BME280;20066;48.764;9.176;2022-10-16T08:08:53;98287.66;;;19.99;62.66
550;BME280;20066;48.764;9.176;2022-10-16T08:11:21;98288.75;;;20.24;62.50
550;BME280;20066;48.764;9.176;2022-10-16T08:13:49;98289.47;;;19.34;65.23
550;BME280;20066;48.764;9.176;2022-10-16T08:16:19;98282.69;;;20.07;62.76
550;BME280;20066;48.764;9.176;2022-10-16T08:18:47;98273.47;;;19.57;63.68
550;BME280;20066;48.764;9.176;2022-10-16T08:21:19;98277.28;;;19.73;63.65
550;BME280;20066;48.764;9.176;2022-10-16T08:23:47;98274.38;;;19.89;62.67
550;BME280;20066;48.764;9.176;2022-10-16T08:26:22;98291.56;;;20.42;61.46
550;BME280;20066;48.764;9.176;2022-10-16T08:28:50;98297.19;;;20.38;61.61
550;BME280;20066;48.764;9.176;2022-10-16T08:31:20;98303.03;;;20.81;60.87
550;BME280;20066;48.764;9.176;2022-10-16T08:33:48;98304.44;;;20.54;60.83
550;BME280;20066;48.764;9.176;2022-10-16T08:36:16;98306.78;;;21.05;59.67
550;BME280;20066;48.764;9.176;2022-10-16T08:38:47;98317.69;;;19.99;62.54
550;BME280;20066;48.764;9.176;2022-10-16T08:41:22;98324.13;;;20.49;62.22
550;BME280;20066;48.764;9.176;2022-10-16T08:46:56;98321.94;;;19.79;64.50
550;BME280;20066;48.764;9.176;2022-10-16T08:49:30;98319.91;;;19.45;65.13
550;BME280;20066;48.764;9.176;2022-10-16T08:51:58;98323.03;;;19.69;64.67
550;BME280;20066;48.764;9.176;2022-10-16T08:54:29;98314.78;;;19.94;63.86
550;BME280;20066;48.764;9.176;2022-10-16T08:57:09;98320.34;;;19.90;63.34
550;BME280;20066;48.764;9.176;2022-10-16T08:59:38;98319.19;;;19.66;63.59
550;BME280;20066;48.764;9.176;2022-10-16T09:02:23;98329.50;;;20.18;62.33
550;BME280;20066;48.764;9.176;2022-10-16T09:05:11;98325.72;;;20.59;60.57
550;BME280;20066;48.764;9.176;2022-10-16T09:07:49;98321.88;;;20.79;59.53
550;BME280;20066;48.764;9.176;2022-10-16T09:10:31;98321.25;;;20.31;60.16
550;BME280;20066;48.764;9.176;2022-10-16T09:13:10;98325.44;;;20.01;61.31
550;BME280;20066;48.764;9.176;2022-10-16T09:15:47;98307.56;;;19.87;61.48
550;BME280;20066;48.764;9.176;2022-10-16T09:18:25;98299.97;;;20.26;60.92
550;BME280;20066;48.764;9.176;2022-10-16T09:21:04;98314.56;;;21.15;58.60
550;BME280;20066;48.764;9.176;2022-10-16T09:23:37;98326.47;;;20.91;58.65
550;BME280;20066;48.764;9.176;2022-10-16T09:26:09;98333.44;;;21.23;57.93
550;BME280;20066;48.764;9.176;2022-10-16T09:28:39;98340.84;;;21.53;57.19
550;BME280;20066;48.764;9.176;2022-10-16T09:31:13;98339.75;;;21.01;58.63
550;BME280;20066;48.764;9.176;2022-10-16T09:33:47;98343.56;;;21.44;57.55
550;BME280;20066;48.764;9.176;2022-10-16T09:36:16;98342.13;;;21.79;56.85
550;BME280;20066;48.764;9.176;2022-10-16T09:38:45;98345.63;;;24.17;50.13
550;BME280;20066;48.764;9.176;2022-10-16T09:41:17;98344.41;;;25.07;47.68
550;BME280;20066;48.764;9.176;2022-10-16T09:43:51;98344.97;;;22.67;51.99
550;BME280;20066;48.764;9.176;2022-10-16T09:46:24;98346.28;;;22.02;54.54
550;BME280;20066;48.764;9.176;2022-10-16T09:48:56;98342.41;;;21.90;54.88
550;BME280;20066;48.764;9.176;2022-10-16T09:51:27;98349.91;;;23.05;52.16
550;BME280;20066;48.764;9.176;2022-10-16T09:53:58;98352.31;;;25.69;46.76
550;BME280;20066;48.764;9.176;2022-10-16T09:56:27;98348.00;;;24.54;47.27
550;BME280;20066;48.764;9.176;2022-10-16T09:58:57;98349.19;;;22.95;51.71
550;BME280;20066;48.764;9.176;2022-10-16T10:01:30;98348.25;;;23.88;49.65
550;BME280;20066;48.764;9.176;2022-10-16T10:04:00;98351.69;;;23.17;50.98
550;BME280;20066;48.764;9.176;2022-10-16T10:06:30;98358.81;;;24.28;48.84
550;BME280;20066;48.764;9.176;2022-10-16T10:09:04;98361.31;;;22.71;52.68
550;BME280;20066;48.764;9.176;2022-10-16T10:11:40;98374.59;;;23.05;51.03
550;BME280;20066;48.764;9.176;2022-10-16T10:17:10;98370.47;;;23.19;50.65
550;BME280;20066;48.764;9.176;2022-10-16T10:19:48;98372.84;;;24.45;48.02
550;BME280;20066;48.764;9.176;2022-10-16T10:22:29;98374.84;;;23.82;47.87
550;BME280;20066;48.764;9.176;2022-10-16T10:25:01;98371.56;;;23.45;48.85
550;BME280;20066;48.764;9.176;2022-10-16T10:27:39;98375.81;;;24.56;46.78
550;BME280;20066;48.764;9.176;2022-10-16T10:30:15;98356.66;;;22.95;49.66
550;BME280;20066;48.764;9.176;2022-10-16T10:32:52;98371.28;;;23.91;48.49
550;BME280;20066;48.764;9.176;2022-10-16T10:35:30;98368.03;;;25.28;45.13
550;BME280;20066;48.764;9.176;2022-10-16T10:38:13;98367.66;;;25.20;45.32
550;BME280;20066;48.764;9.176;2022-10-16T10:40:51;98369.22;;;25.97;44.34
550;BME280;20066;48.764;9.176;2022-10-16T10:43:34;98379.38;;;27.83;39.98
550;BME280;20066;48.764;9.176;2022-10-16T10:46:11;98375.25;;;27.25;41.70
550;BME280;20066;48.764;9.176;2022-10-16T10:48:54;98379.97;;;27.55;40.23
550;BME280;20066;48.764;9.176;2022-10-16T10:51:30;98382.47;;;31.01;34.33
550;BME280;20066;48.764;9.176;2022-10-16T10:54:11;98385.91;;;34.35;29.32
550;BME280;20066;48.764;9.176;2022-10-16T10:56:46;98385.38;;;33.18;29.74
550;BME280;20066;48.764;9.176;2022-10-16T10:59:35;98382.16;;;35.78;26.06
550;BME280;20066;48.764;9.176;2022-10-16T11:02:10;98378.84;;;34.68;27.75
550;BME280;20066;48.764;9.176;2022-10-16T11:07:49;98372.03;;;36.62;25.06
550;BME280;20066;48.764;9.176;2022-10-16T11:10:22;98373.97;;;35.60;26.58
550;BME280;20066;48.764;9.176;2022-10-16T11:12:55;98360.69;;;31.59;32.79
550;BME280;20066;48.764;9.176;2022-10-16T11:15:28;98364.50;;;34.38;29.17
550;BME280;20066;48.764;9.176;2022-10-16T11:18:01;98363.28;;;32.57;31.08
550;BME280;20066;48.764;9.176;2022-10-16T11:20:34;98353.44;;;29.51;35.89
550;BME280;20066;48.764;9.176;2022-10-16T11:23:11;98347.31;;;27.17;40.51
550;BME280;20066;48.764;9.176;2022-10-16T11:25:43;98349.81;;;26.06;42.74
550;BME280;20066;48.764;9.176;2022-10-16T11:28:13;98347.47;;;26.45;41.82
550;BME280;20066;48.764;9.176;2022-10-16T11:30:46;98356.44;;;26.66;40.94
550;BME280;20066;48.764;9.176;2022-10-16T11:33:27;98355.06;;;27.50;40.03
550;BME280;20066;48.764;9.176;2022-10-16T11:36:03;98351.91;;;26.17;42.06
550;BME280;20066;48.764;9.176;2022-10-16T11:38:39;98355.06;;;27.50;38.51
550;BME280;20066;48.764;9.176;2022-10-16T11:41:18;98355.97;;;27.78;39.16
550;BME280;20066;48.764;9.176;2022-10-16T11:43:53;98353.38;;;28.17;37.35
550;BME280;20066;48.764;9.176;2022-10-16T11:46:26;98345.41;;;26.66;40.11
550;BME280;20066;48.764;9.176;2022-10-16T11:49:00;98346.94;;;27.30;39.22
550;BME280;20066;48.764;9.176;2022-10-16T11:51:35;98348.78;;;26.55;40.79
550;BME280;20066;48.764;9.176;2022-10-16T11:54:19;98350.72;;;26.23;42.73
550;BME280;20066;48.764;9.176;2022-10-16T11:56:51;98341.50;;;26.52;41.41
550;BME280;20066;48.764;9.176;2022-10-16T11:59:26;98330.78;;;26.34;41.86
550;BME280;20066;48.764;9.176;2022-10-16T12:02:02;98335.56;;;25.52;45.21
550;BME280;20066;48.764;9.176;2022-10-16T12:04:41;98331.81;;;24.85;44.81
550;BME280;20066;48.764;9.176;2022-10-16T12:07:14;98330.69;;;25.27;44.52
550;BME280;20066;48.764;9.176;2022-10-16T12:09:46;98335.47;;;26.54;41.95
550;BME280;20066;48.764;9.176;2022-10-16T12:12:24;98338.06;;;26.63;41.41
550;BME280;20066;48.764;9.176;2022-10-16T12:15:00;98326.13;;;24.89;44.08
550;BME280;20066;48.764;9.176;2022-10-16T12:17:47;98327.00;;;25.15;44.03
550;BME280;20066;48.764;9.176;2022-10-16T12:20:30;98337.78;;;25.48;43.48
550;BME280;20066;48.764;9.176;2022-10-16T12:23:00;98326.38;;;24.62;45.33
550;BME280;20066;48.764;9.176;2022-10-16T12:25:32;98332.28;;;24.69;44.32
550;BME280;20066;48.764;9.176;2022-10-16T12:28:03;98337.38;;;25.20;42.64
550;BME280;20066;48.764;9.176;2022-10-16T12:30:33;98336.75;;;25.86;41.75
550;BME280;20066;48.764;9.176;2022-10-16T12:33:03;98343.34;;;26.15;41.60
550;BME280;20066;48.764;9.176;2022-10-16T12:35:34;98341.16;;;25.58;42.30
550;BME280;20066;48.764;9.176;2022-10-16T12:38:12;98341.50;;;26.52;40.46
550;BME280;20066;48.764;9.176;2022-10-16T12:40:44;98341.69;;;26.23;41.54
550;BME280;20066;48.764;9.176;2022-10-16T12:43:28;98334.81;;;25.72;41.66
550;BME280;20066;48.764;9.176;2022-10-16T12:46:04;98346.25;;;26.26;40.59
550;BME280;20066;48.764;9.176;2022-10-16T12:48:33;98336.75;;;25.86;42.21
550;BME280;20066;48.764;9.176;2022-10-16T12:51:23;98343.16;;;26.70;41.28
550;BME280;20066;48.764;9.176;2022-10-16T12:54:01;98341.59;;;26.89;40.44
550;BME280;20066;48.764;9.176;2022-10-16T12:56:39;98349.69;;;26.98;41.29
550;BME280;20066;48.764;9.176;2022-10-16T12:59:18;98347.00;;;25.30;44.20
550;BME280;20066;48.764;9.176;2022-10-16T13:02:01;98351.50;;;25.83;42.95
550;BME280;20066;48.764;9.176;2022-10-16T13:05:02;98353.81;;;25.50;44.24
550;BME280;20066;48.764;9.176;2022-10-16T13:07:46;98353.16;;;24.90;45.22
550;BME280;20066;48.764;9.176;2022-10-16T13:10:25;98360.00;;;25.45;44.41
550;BME280;20066;48.764;9.176;2022-10-16T13:13:13;98362.09;;;25.70;43.89
550;BME280;20066;48.764;9.176;2022-10-16T13:15:54;98356.75;;;25.11;45.29
550;BME280;20066;48.764;9.176;2022-10-16T13:18:29;98362.38;;;25.37;43.82
550;BME280;20066;48.764;9.176;2022-10-16T13:21:12;98360.16;;;25.06;45.69
550;BME280;20066;48.764;9.176;2022-10-16T13:23:50;98363.75;;;26.69;42.74
550;BME280;20066;48.764;9.176;2022-10-16T13:26:26;98362.00;;;26.97;42.32
550;BME280;20066;48.764;9.176;2022-10-16T13:29:00;98362.41;;;26.13;43.13
550;BME280;20066;48.764;9.176;2022-10-16T13:31:29;98366.25;;;25.60;44.61
550;BME280;20066;48.764;9.176;2022-10-16T13:33:59;98362.53;;;25.83;43.76
550;BME280;20066;48.764;9.176;2022-10-16T13:36:28;98361.91;;;26.60;42.51
550;BME280;20066;48.764;9.176;2022-10-16T13:39:12;98362.41;;;27.53;40.77
550;BME280;20066;48.764;9.176;2022-10-16T13:41:40;98366.06;;;26.50;42.93
550;BME280;20066;48.764;9.176;2022-10-16T13:44:14;98360.38;;;26.85;42.41
550;BME280;20066;48.764;9.176;2022-10-16T13:46:43;98364.50;;;27.32;41.11
550;BME280;20066;48.764;9.176;2022-10-16T13:49:14;98369.81;;;27.04;41.29
550;BME280;20066;48.764;9.176;2022-10-16T13:51:42;98359.72;;;26.18;43.31
550;BME280;20066;48.764;9.176;2022-10-16T13:54:21;98360.25;;;26.22;43.44
550;BME280;20066;48.764;9.176;2022-10-16T13:56:48;98357.47;;;27.31;41.09